Lille-Lesquin Airport

LFQQ · North, Hauts-de-France, 法国

罗盘
风向 的 风向 050° Lille-Lesquin Airport 1/19
风: 10 kt, 3 beaufort

8 kt

6 kt
改变
0 1.000 2.000 3.000 4.000 5.000
OVC 1.600 ft
SPECI LFQQ 030630Z AUTO 05010KT 9999 OVC016 02/M01 Q1020 BECMG OVC012

METAR Lille-Lesquin Airport - LFQQ/LIL

Lille-Lesquin Airport是,法国中的中型机场。 该机场有2条跑道: 1/19 和 8/26. 该领域的国际民航组织标志是LFQQ 它的国际航空运输协会代码是LIL.

这份报告是针对2022年12月3日 07:30, 当地时间在Lille-Lesquin Airport进行的。

机场观察

风向为050°,速度为10 kt。

可见度为10 km 或者更多。

有乌云密布在1.600 ft的高度。 破损或更高的上限为1.600 ft。

温度为2 °C,阵风为-4 °C。 露点为-1 °C,相对湿度为81%。 海平面上的气压为1020 hPa (QNH)。

发展趋势

  • 变得

    可变方向的风很小或没有。 乌云密布在1.200 ft的高度.

白天

今天,太阳从08:29升起,在16:45降落。 这适用于Lille-Lesquin Airport,世界夏令时可能有所不同。 当地时间与世界标准时间之间的时差为+1 小时。 当前,没有夏令时有效。

公司介绍

在这个机场,你可以找到飞行俱乐部。 本场上唯一已知的公司是Club Aérien Lille Métropole。

体会

到Vliegles.nl去找飞行课程,跳伞和其他飞行体验。 浏览页面,了解Lille-Lesquin Airport附近所有可用的活动。 你也可以使用搜索功能来寻找你所在地附近的特定飞行课程、跳伞或其他飞行体验。

跑道

Id 标题 侧风 逆风 侧风 %
1/19 015°-195° 6 kt 8 kt 57 %
8/26 078°-258° 5 kt 9 kt 47 %

逆风成分最大的方向会被突出显示,并用于横风计算。 这并不一定意味着这个方向在使用。

乌云

1.600 ft OVC 乌云密布
1.200 ft OVC 变得 乌云密布

温度 & 天气

温度 2 °C
露点 -1 °C
相对湿度 81%
风寒 -4 °C
Kp-index 0 (0-9)

白天

日出
08:29 (29m)
中午
12:37
日落
16:45

小工具

你想在你的网站上有一个关于Lille-Lesquin Airport的当前航空天气(METAR)的小部件吗?

显示HTML代码

我们和第三方通过cookies跟踪您在我们网站上的互联网行为。如果你继续,我们认为你同意我们的饼干政策